Time;durP1;ratioP1;P1;durP2;ratioP2;P2;SDS_P1;SDS_P2;PMS_P1;PMS_P2;Temp;Humidity;BMP_temperature;BMP_pressure;BME280_temperature;BME280_humidity;BME280_pressure;Samples;Min_cycle;Max_cycle;Signal;HPM_P1;HPM_P2
2022/04/26 03:38:47;;;;;;;1.20;1.20;;;12.90;82.40;;;;;;4997991;28;20444;-72
2022/04/26 03:41:14;;;;;;;1.20;1.20;;;12.90;82.30;;;;;;5013553;28;20452;-71
2022/04/26 03:43:41;;;;;;;1.17;1.17;;;12.90;82.40;;;;;;5013456;28;20440;-71
2022/04/26 03:46:08;;;;;;;1.03;1.00;;;12.90;82.40;;;;;;5013070;28;20994;-72
2022/04/26 03:48:34;;;;;;;1.13;1.13;;;12.90;82.10;;;;;;5013409;28;20449;-71
2022/04/26 03:51:02;;;;;;;1.00;1.00;;;12.90;82.00;;;;;;5013385;28;20443;-72
2022/04/26 03:53:29;;;;;;;1.03;1.03;;;12.90;81.90;;;;;;5013378;28;20502;-72
2022/04/26 03:55:56;;;;;;;1.10;1.10;;;12.90;82.00;;;;;;5013280;28;20571;-72
2022/04/26 03:58:22;;;;;;;1.20;1.20;;;12.90;82.10;;;;;;5013301;28;20503;-71
2022/04/26 04:00:49;;;;;;;1.20;1.20;;;12.90;82.20;;;;;;5013249;28;20448;-72
2022/04/26 04:03:16;;;;;;;1.00;1.00;;;12.90;82.20;;;;;;5013282;28;20456;-72
2022/04/26 04:05:43;;;;;;;1.40;1.40;;;12.80;82.10;;;;;;5013120;28;20806;-71
2022/04/26 04:08:11;;;;;;;1.30;1.30;;;12.80;82.20;;;;;;5014874;28;20896;-71
2022/04/26 04:10:37;;;;;;;1.20;1.20;;;12.80;82.50;;;;;;5016649;28;20827;-72
2022/04/26 04:13:04;;;;;;;1.27;1.20;;;12.80;82.40;;;;;;5016691;28;20947;-71
2022/04/26 04:15:31;;;;;;;1.00;1.00;;;12.70;82.40;;;;;;5016524;28;20998;-72
2022/04/26 04:17:57;;;;;;;1.20;1.20;;;12.70;82.40;;;;;;5016768;28;20956;-72
2022/04/26 04:20:25;;;;;;;1.27;1.27;;;12.70;82.50;;;;;;5016838;28;20452;-71
2022/04/26 04:22:53;;;;;;;1.50;1.40;;;12.70;82.70;;;;;;5016793;28;20503;-72
2022/04/26 04:25:21;;;;;;;1.30;1.20;;;12.70;82.60;;;;;;5016765;28;20448;-72
2022/04/26 04:27:48;;;;;;;1.43;1.33;;;12.60;82.50;;;;;;5016625;28;20468;-72
2022/04/26 04:30:15;;;;;;;1.10;1.10;;;12.60;82.50;;;;;;5016613;28;20997;-71
2022/04/26 04:32:42;;;;;;;1.30;1.30;;;12.60;82.40;;;;;;5019772;28;20510;-72
2022/04/26 04:35:09;;;;;;;1.50;1.40;;;12.60;82.50;;;;;;5021576;28;20562;-72
2022/04/26 04:37:36;;;;;;;1.50;1.40;;;12.60;82.60;;;;;;5020550;28;21002;-72
2022/04/26 04:40:03;;;;;;;1.20;1.20;;;12.70;82.40;;;;;;5018728;28;20452;-72
2022/04/26 04:42:31;;;;;;;1.30;1.30;;;12.70;82.10;;;;;;5017569;28;20976;-74
2022/04/26 04:44:57;;;;;;;1.10;1.10;;;12.70;82.00;;;;;;5017765;28;20450;-76
2022/04/26 04:47:26;;;;;;;1.47;1.40;;;12.70;82.20;;;;;;5017948;28;20472;-74
2022/04/26 04:49:53;;;;;;;1.30;1.17;;;12.70;81.80;;;;;;5017686;28;20865;-73
2022/04/26 04:52:19;;;;;;;1.60;1.50;;;12.70;81.60;;;;;;5016628;28;20852;-74
2022/04/26 04:54:46;;;;;;;1.20;1.13;;;12.70;81.80;;;;;;5017110;28;20452;-74
2022/04/26 04:57:13;;;;;;;1.23;1.23;;;12.70;81.80;;;;;;5016840;28;20468;-74
2022/04/26 04:59:41;;;;;;;1.30;1.30;;;12.70;81.80;;;;;;5016476;28;20451;-74
2022/04/26 05:02:08;;;;;;;1.67;1.63;;;12.70;81.60;;;;;;5016250;28;20447;-74
2022/04/26 05:04:34;;;;;;;1.10;1.10;;;12.80;81.60;;;;;;5016593;28;20483;-74
2022/04/26 05:07:01;;;;;;;1.10;1.10;;;12.80;81.50;;;;;;5016281;28;20460;-74
2022/04/26 05:09:28;;;;;;;1.30;1.30;;;12.80;81.60;;;;;;5016534;28;20478;-74
2022/04/26 05:11:54;;;;;;;1.30;1.30;;;12.80;81.80;;;;;;5016040;28;20478;-74
2022/04/26 05:14:21;;;;;;;1.27;1.17;;;12.80;81.80;;;;;;5016017;28;20452;-74
2022/04/26 05:16:49;;;;;;;1.20;1.20;;;12.80;81.70;;;;;;5015754;28;20484;-74
2022/04/26 05:19:15;;;;;;;1.20;1.20;;;12.80;81.80;;;;;;5015831;28;20526;-74
2022/04/26 05:21:42;;;;;;;1.40;1.40;;;12.80;81.80;;;;;;5015560;28;20813;-74
2022/04/26 05:26:53;;;;;;;1.20;1.20;;;12.80;81.70;;;;;;5016435;28;20924;-74
2022/04/26 05:29:20;;;;;;;1.57;1.20;;;12.80;81.40;;;;;;5015867;28;20452;-74
2022/04/26 05:31:46;;;;;;;1.20;1.20;;;12.70;81.20;;;;;;5015591;28;20998;-75
2022/04/26 05:34:14;;;;;;;1.23;1.23;;;12.80;81.60;;;;;;5015514;28;20452;-73
2022/04/26 05:36:41;;;;;;;1.17;1.13;;;12.60;81.80;;;;;;5015471;28;20488;-74
2022/04/26 05:39:08;;;;;;;1.40;1.30;;;12.60;82.10;;;;;;5016024;28;20456;-74
2022/04/26 05:41:34;;;;;;;1.30;1.30;;;12.40;82.40;;;;;;5015659;28;20471;-74
2022/04/26 05:44:01;;;;;;;1.20;1.20;;;12.20;83.00;;;;;;5015414;28;20452;-74
2022/04/26 05:46:28;;;;;;;1.00;1.00;;;12.10;84.00;;;;;;5015653;28;20491;-74
2022/04/26 05:48:54;;;;;;;1.20;1.20;;;12.00;84.50;;;;;;5015522;28;20455;-75
2022/04/26 05:51:23;;;;;;;1.40;1.30;;;12.10;84.50;;;;;;5015195;28;20448;-75
2022/04/26 05:53:49;;;;;;;1.40;1.40;;;12.20;84.20;;;;;;5014880;28;20452;-75
2022/04/26 05:56:16;;;;;;;1.20;1.20;;;12.30;84.20;;;;;;5014656;28;20484;-75
2022/04/26 05:58:43;;;;;;;1.30;1.20;;;12.20;83.60;;;;;;5015200;28;20448;-75
2022/04/26 06:01:09;;;;;;;1.30;1.30;;;12.10;83.90;;;;;;5014791;28;20822;-74
2022/04/26 06:03:36;;;;;;;1.30;1.30;;;12.20;84.40;;;;;;5015036;28;20453;-75
2022/04/26 06:06:03;;;;;;;1.20;1.20;;;12.30;84.20;;;;;;5014914;28;20468;-74
2022/04/26 06:08:31;;;;;;;1.57;1.47;;;11.90;84.50;;;;;;5014941;28;20465;-75
2022/04/26 06:10:58;;;;;;;1.60;1.50;;;11.80;85.40;;;;;;5014795;28;20452;-75
2022/04/26 06:13:25;;;;;;;1.23;1.23;;;11.70;85.70;;;;;;5014804;28;20448;-75
2022/04/26 06:15:51;;;;;;;1.10;1.10;;;11.70;85.90;;;;;;5014669;28;20545;-74
2022/04/26 06:18:18;;;;;;;1.30;1.30;;;11.70;85.70;;;;;;5014747;28;20428;-75
2022/04/26 06:20:45;;;;;;;1.30;1.30;;;11.80;86.00;;;;;;5014741;28;20448;-74
2022/04/26 06:23:11;;;;;;;1.10;1.10;;;11.80;85.30;;;;;;5014626;28;20484;-74
2022/04/26 06:25:39;;;;;;;1.20;1.20;;;11.70;85.80;;;;;;5013369;28;20460;-75
2022/04/26 06:28:09;;;;;;;1.23;1.23;;;11.70;85.80;;;;;;5014619;28;20475;-74
2022/04/26 06:30:37;;;;;;;1.80;1.70;;;11.50;86.30;;;;;;5013558;28;20463;-75
2022/04/26 06:33:04;;;;;;;1.23;1.17;;;11.60;86.70;;;;;;5014494;28;20531;-74
2022/04/26 06:35:30;;;;;;;1.30;1.30;;;11.70;86.90;;;;;;5014427;28;20567;-75
2022/04/26 06:37:58;;;;;;;1.20;1.20;;;11.80;86.30;;;;;;5014365;28;20502;-75
2022/04/26 06:40:25;;;;;;;1.37;1.37;;;11.90;85.70;;;;;;5014082;28;20868;-74
2022/04/26 06:42:53;;;;;;;1.00;1.00;;;12.10;85.70;;;;;;5014261;28;20452;-75
2022/04/26 06:45:19;;;;;;;1.20;1.20;;;12.10;85.50;;;;;;5014047;28;20862;-74
2022/04/26 06:47:48;;;;;;;1.10;1.10;;;12.00;85.10;;;;;;5014125;28;20476;-75
2022/04/26 06:50:15;;;;;;;1.20;1.20;;;12.10;85.10;;;;;;5014239;28;20444;-77
2022/04/26 06:52:41;;;;;;;1.53;1.10;;;12.30;84.80;;;;;;5014126;28;20455;-75
2022/04/26 06:55:09;;;;;;;1.10;1.10;;;12.30;83.90;;;;;;5014212;28;20931;-75
2022/04/26 06:57:37;;;;;;;1.00;1.00;;;12.20;84.70;;;;;;5014150;28;20480;-75
2022/04/26 07:00:07;;;;;;;1.00;1.00;;;12.30;84.30;;;;;;5014886;28;20495;-75
2022/04/26 07:02:34;;;;;;;1.13;1.13;;;12.10;84.40;;;;;;5014400;28;20944;-75
2022/04/26 07:05:01;;;;;;;1.10;1.10;;;12.10;85.20;;;;;;5015121;28;20452;-75
2022/04/26 07:07:28;;;;;;;1.20;1.20;;;12.20;84.20;;;;;;5015136;28;20460;-76
2022/04/26 07:09:54;;;;;;;1.30;1.30;;;12.20;85.00;;;;;;5015463;28;20459;-75
2022/04/26 07:12:21;;;;;;;1.10;1.10;;;12.50;84.70;;;;;;5014959;28;20460;-75
2022/04/26 07:14:48;;;;;;;1.10;1.10;;;12.60;84.50;;;;;;5015615;28;20448;-76
2022/04/26 07:17:17;;;;;;;1.00;1.00;;;12.80;84.00;;;;;;5016090;28;20495;-75
2022/04/26 07:19:44;;;;;;;1.10;1.10;;;12.90;83.90;;;;;;5018070;28;20452;-76
2022/04/26 07:22:10;;;;;;;0.90;0.90;;;13.10;82.70;;;;;;5017976;28;20792;-75
2022/04/26 07:24:37;;;;;;;0.90;0.90;;;13.40;82.60;;;;;;5017670;28;20830;-76
2022/04/26 07:27:04;;;;;;;0.80;0.80;;;13.80;79.20;;;;;;5017169;28;20467;-75
2022/04/26 07:29:31;;;;;;;1.00;1.00;;;14.00;79.00;;;;;;5015669;28;20471;-76
2022/04/26 07:31:57;;;;;;;0.90;0.90;;;14.10;78.80;;;;;;5015329;28;20461;-76
2022/04/26 07:34:25;;;;;;;0.90;0.90;;;14.30;77.80;;;;;;5015996;28;20452;-75
2022/04/26 07:36:53;;;;;;;0.90;0.90;;;14.40;76.70;;;;;;5015120;28;20514;-75
2022/04/26 07:39:20;;;;;;;1.00;1.00;;;14.40;76.30;;;;;;5016521;28;20450;-74
2022/04/26 07:41:48;;;;;;;0.80;0.80;;;14.40;76.00;;;;;;5016923;28;20456;-77
2022/04/26 07:44:15;;;;;;;0.97;0.97;;;14.40;76.30;;;;;;5019817;28;20864;-76
2022/04/26 07:46:44;;;;;;;0.70;0.70;;;14.40;75.90;;;;;;5020317;28;20479;-75
2022/04/26 07:49:12;;;;;;;0.90;0.90;;;14.40;74.90;;;;;;5019819;28;20448;-75
2022/04/26 07:51:42;;;;;;;0.80;0.80;;;14.30;74.40;;;;;;5020156;28;20456;-75
2022/04/26 07:54:09;;;;;;;0.90;0.90;;;14.10;74.20;;;;;;5019791;28;20463;-76
2022/04/26 07:56:36;;;;;;;1.00;1.00;;;14.00;74.80;;;;;;5019036;28;20857;-74
2022/04/26 07:59:03;;;;;;;1.00;0.90;;;13.90;76.30;;;;;;5017508;28;20440;-75
2022/04/26 08:01:31;;;;;;;0.70;0.70;;;13.90;75.90;;;;;;5017275;28;20546;-75
2022/04/26 08:03:58;;;;;;;1.07;0.97;;;14.00;75.20;;;;;;5017264;28;20470;-75
2022/04/26 08:06:25;;;;;;;0.90;0.90;;;14.00;75.50;;;;;;5017139;28;20486;-75
2022/04/26 08:08:54;;;;;;;0.90;0.90;;;14.00;75.50;;;;;;5017128;28;20539;-75
2022/04/26 08:11:20;;;;;;;0.80;0.80;;;14.00;75.50;;;;;;5017190;28;20451;-75
2022/04/26 08:13:47;;;;;;;1.33;0.90;;;14.00;75.90;;;;;;5017104;28;20495;-75
2022/04/26 08:16:14;;;;;;;0.80;0.80;;;14.00;75.50;;;;;;5016652;28;20546;-73
2022/04/26 08:18:41;;;;;;;0.97;0.97;;;14.00;75.60;;;;;;5017054;28;20440;-73
2022/04/26 08:21:09;;;;;;;1.00;1.00;;;14.00;75.60;;;;;;5017017;28;20813;-73
2022/04/26 08:27:22;;;;;;;0.80;0.80;;;14.00;74.80;;;;;;5016640;28;21054;-73
2022/04/26 08:29:23;;;;;;;1.00;1.00;;;14.00;74.50;;;;;;4956038;28;20442;-73
2022/04/26 08:31:50;;;;;;;1.00;1.00;;;14.00;75.00;;;;;;4956122;29;20438;-73
2022/04/26 08:34:16;;;;;;;0.90;0.90;;;13.90;75.40;;;;;;4982168;28;20455;-74
2022/04/26 08:36:43;;;;;;;0.80;0.80;;;14.00;76.50;;;;;;5016635;28;20503;-74
2022/04/26 08:39:10;;;;;;;0.90;0.90;;;14.10;77.10;;;;;;5016326;28;20797;-74
2022/04/26 08:41:38;;;;;;;1.33;1.00;;;14.30;76.20;;;;;;5016486;28;20460;-73
2022/04/26 08:44:09;;;;;;;1.00;0.90;;;14.40;75.00;;;;;;5016276;28;20547;-73
2022/04/26 08:52:15;;;;;;;0.90;0.90;;;14.40;72.90;;;;;;5016431;28;20451;-73
2022/04/26 08:54:41;;;;;;;0.80;0.80;;;14.40;73.00;;;;;;5015809;28;20542;-73
2022/04/26 08:57:09;;;;;;;0.73;0.73;;;14.40;74.20;;;;;;5016311;28;20538;-73
2022/04/26 08:59:38;;;;;;;0.80;0.80;;;14.50;74.80;;;;;;5016456;28;20534;-74
2022/04/26 09:02:16;;;;;;;0.90;0.90;;;14.50;72.90;;;;;;5016295;28;20456;-73
2022/04/26 09:04:43;;;;;;;0.80;0.80;;;14.30;73.00;;;;;;5016301;28;20801;-73
2022/04/26 09:07:11;;;;;;;0.77;0.77;;;14.30;74.20;;;;;;5016024;28;20507;-73
2022/04/26 09:09:39;;;;;;;0.80;0.80;;;14.30;74.20;;;;;;5016483;28;20539;-73
2022/04/26 09:12:12;;;;;;;0.87;0.87;;;14.10;74.20;;;;;;5015721;28;21014;-72
2022/04/26 09:14:47;;;;;;;1.40;1.30;;;14.00;73.10;;;;;;5015903;28;20440;-73
2022/04/26 09:17:16;;;;;;;0.90;0.90;;;13.70;72.20;;;;;;5016935;28;20836;-72
2022/04/26 09:19:47;;;;;;;0.83;0.83;;;13.50;71.30;;;;;;5015761;28;20946;-73
2022/04/26 09:22:19;;;;;;;0.80;0.80;;;13.50;71.70;;;;;;5015727;28;20459;-72
2022/04/26 09:24:57;;;;;;;0.77;0.77;;;13.60;70.80;;;;;;5015836;28;20452;-73
2022/04/26 09:27:26;;;;;;;0.80;0.80;;;13.60;71.00;;;;;;5015559;28;20471;-73
2022/04/26 09:29:53;;;;;;;0.80;0.80;;;13.80;69.90;;;;;;5015735;28;20506;-73
2022/04/26 09:32:20;;;;;;;0.80;0.80;;;14.00;69.50;;;;;;5015705;28;20503;-73
2022/04/26 09:34:47;;;;;;;0.77;0.77;;;14.10;69.20;;;;;;5015781;28;20447;-73
2022/04/26 09:37:14;;;;;;;0.90;0.90;;;14.10;70.60;;;;;;5015371;28;20491;-73
2022/04/26 09:39:41;;;;;;;0.80;0.80;;;14.40;68.90;;;;;;5015393;28;20504;-73
2022/04/26 09:42:08;;;;;;;0.80;0.80;;;14.60;67.80;;;;;;5015459;28;21006;-74
2022/04/26 09:44:40;;;;;;;0.80;0.80;;;14.60;67.00;;;;;;5015383;28;20448;-72
2022/04/26 09:47:07;;;;;;;0.70;0.70;;;14.60;68.10;;;;;;5015299;28;20468;-74
2022/04/26 09:49:37;;;;;;;0.90;0.90;;;14.90;66.60;;;;;;5015322;28;20448;-73
2022/04/26 09:52:06;;;;;;;0.80;0.80;;;15.00;65.10;;;;;;5015218;28;20909;-73
2022/04/26 09:54:35;;;;;;;2.40;1.00;;;15.10;65.50;;;;;;5015226;28;20457;-72
2022/04/26 09:57:05;;;;;;;0.90;0.90;;;15.00;65.40;;;;;;5015520;28;20518;-72
2022/04/26 09:59:39;;;;;;;0.90;0.90;;;15.00;64.00;;;;;;5015084;28;20456;-73
2022/04/26 10:02:10;;;;;;;0.80;0.80;;;15.00;64.30;;;;;;5015197;28;20827;-73
2022/04/26 10:04:44;;;;;;;0.80;0.80;;;15.20;64.40;;;;;;5014967;28;20436;-73
2022/04/26 10:07:15;;;;;;;0.77;0.77;;;15.10;63.40;;;;;;5014935;28;20470;-73
2022/04/26 10:09:45;;;;;;;0.80;0.80;;;15.20;63.00;;;;;;5014826;28;20436;-73
2022/04/26 10:12:13;;;;;;;0.80;0.80;;;15.10;62.10;;;;;;5014790;28;20452;-72
2022/04/26 10:14:41;;;;;;;0.80;0.80;;;15.10;62.70;;;;;;5014754;28;20448;-73
2022/04/26 10:17:08;;;;;;;0.70;0.70;;;14.90;62.20;;;;;;5014502;28;20500;-71
2022/04/26 10:19:40;;;;;;;0.80;0.80;;;14.80;62.90;;;;;;5014431;28;20919;-73
2022/04/26 10:22:08;;;;;;;0.80;0.80;;;14.90;62.80;;;;;;5014344;28;20940;-72
2022/04/26 10:24:35;;;;;;;0.70;0.67;;;14.80;60.80;;;;;;5014594;28;20452;-72
2022/04/26 10:33:47;;;;;;;0.70;0.70;;;16.20;60.00;;;;;;5014232;28;20441;-69
2022/04/26 10:36:34;;;;;;;0.70;0.70;;;16.80;57.50;;;;;;5014420;28;20555;-69
2022/04/26 10:39:22;;;;;;;0.70;0.70;;;17.00;55.10;;;;;;5014319;28;20476;-70
2022/04/26 10:41:49;;;;;;;1.00;1.00;;;17.00;55.10;;;;;;5014381;28;20429;-69
2022/04/26 10:44:30;;;;;;;0.70;0.70;;;17.00;54.50;;;;;;5014267;28;20444;-69
2022/04/26 10:47:25;;;;;;;0.80;0.80;;;17.10;57.90;;;;;;5013874;28;20911;-69
2022/04/26 10:49:54;;;;;;;1.27;0.77;;;17.40;57.30;;;;;;5000695;28;20522;-70
2022/04/26 10:52:49;;;;;;;0.80;0.80;;;17.40;56.20;;;;;;5014230;28;20455;-70
2022/04/26 10:55:25;;;;;;;0.70;0.70;;;17.40;54.80;;;;;;5014071;28;20443;-69
2022/04/26 10:57:52;;;;;;;0.70;0.70;;;17.30;55.50;;;;;;5013917;28;20537;-69
2022/04/26 11:00:21;;;;;;;0.70;0.70;;;17.40;53.80;;;;;;5013746;28;20947;-69
2022/04/26 11:02:51;;;;;;;1.20;0.80;;;17.30;54.40;;;;;;5014344;28;20834;-69
2022/04/26 11:05:24;;;;;;;0.80;0.80;;;17.00;54.00;;;;;;5015260;28;20499;-71
2022/04/26 11:07:51;;;;;;;0.60;0.60;;;16.90;54.20;;;;;;5014852;28;20465;-70
2022/04/26 11:10:20;;;;;;;0.70;0.70;;;16.70;52.50;;;;;;5015015;28;20448;-70
2022/04/26 11:12:48;;;;;;;0.70;0.70;;;16.70;53.40;;;;;;5014989;28;20471;-70
2022/04/26 11:15:19;;;;;;;0.67;0.67;;;16.90;52.00;;;;;;5014890;28;20448;-70
2022/04/26 11:17:46;;;;;;;0.60;0.60;;;16.80;54.40;;;;;;5013599;28;20496;-70
2022/04/26 11:20:16;;;;;;;0.70;0.60;;;16.90;50.90;;;;;;5014246;28;20463;-69
2022/04/26 11:22:46;;;;;;;0.70;0.70;;;16.80;49.20;;;;;;5013660;28;20859;-71
2022/04/26 11:28:06;;;;;;;0.60;0.60;;;16.70;51.80;;;;;;5014326;28;20395;-70
2022/04/26 11:30:35;;;;;;;0.73;0.73;;;16.90;55.30;;;;;;5013991;28;20861;-70
2022/04/26 11:33:03;;;;;;;0.80;0.80;;;17.30;59.20;;;;;;5013810;28;20954;-69
2022/04/26 11:35:30;;;;;;;0.70;0.60;;;17.70;54.20;;;;;;5013765;28;20456;-69
2022/04/26 11:38:04;;;;;;;0.70;0.70;;;17.80;51.50;;;;;;5014310;28;20582;-70
2022/04/26 11:40:32;;;;;;;0.80;0.80;;;17.70;52.30;;;;;;5013676;28;20491;-70
2022/04/26 11:43:06;;;;;;;0.80;0.80;;;17.50;52.70;;;;;;5014094;28;20459;-69
2022/04/26 11:45:35;;;;;;;0.90;0.90;;;17.30;57.10;;;;;;5015021;28;20444;-69
2022/04/26 11:48:02;;;;;;;1.00;1.00;;;17.00;58.60;;;;;;5014738;28;20444;-69
2022/04/26 11:50:30;;;;;;;0.97;0.97;;;16.60;60.70;;;;;;5015047;28;20451;-69
2022/04/26 11:53:03;;;;;;;0.90;0.90;;;16.30;61.40;;;;;;5014134;28;20448;-69
2022/04/26 11:55:31;;;;;;;1.03;0.90;;;16.00;63.00;;;;;;5014171;28;20444;-69
2022/04/26 11:58:13;;;;;;;0.90;0.90;;;15.90;64.40;;;;;;5014123;28;20534;-72
2022/04/26 12:00:59;;;;;;;0.90;0.90;;;15.80;64.30;;;;;;5015429;28;20439;-69
2022/04/26 12:03:29;;;;;;;0.90;0.90;;;15.70;66.10;;;;;;5014379;28;20440;-70
2022/04/26 12:05:59;;;;;;;0.90;0.90;;;15.70;65.30;;;;;;5014461;28;20499;-69
2022/04/26 12:08:28;;;;;;;0.93;0.87;;;15.80;65.80;;;;;;5014206;28;20444;-69
2022/04/26 12:10:55;;;;;;;0.97;0.97;;;15.70;64.70;;;;;;5013946;28;20920;-71
2022/04/26 12:13:30;;;;;;;1.07;1.03;;;15.70;65.20;;;;;;5014533;28;20452;-71
2022/04/26 12:15:58;;;;;;;1.00;1.00;;;15.50;67.20;;;;;;5014336;28;20479;-71
2022/04/26 12:18:25;;;;;;;1.00;1.00;;;15.30;67.70;;;;;;5013547;28;20492;-70
2022/04/26 12:21:00;;;;;;;1.00;1.00;;;15.10;69.30;;;;;;5014853;28;20452;-70
2022/04/26 12:23:29;;;;;;;0.90;0.90;;;15.00;69.50;;;;;;5013905;28;20456;-71
2022/04/26 12:25:57;;;;;;;1.10;1.10;;;15.10;70.80;;;;;;5013519;28;20468;-69
2022/04/26 12:28:24;;;;;;;0.80;0.80;;;15.10;70.80;;;;;;5013757;28;20456;-69
2022/04/26 12:30:51;;;;;;;1.00;1.00;;;15.20;71.90;;;;;;5017638;28;20458;-70
2022/04/26 12:33:29;;;;;;;1.10;1.10;;;15.30;70.60;;;;;;5017286;28;20452;-71
2022/04/26 12:36:01;;;;;;;0.90;0.90;;;15.30;70.40;;;;;;5017687;28;20471;-69
2022/04/26 12:38:30;;;;;;;1.20;1.10;;;15.10;68.70;;;;;;5017154;28;20571;-69
2022/04/26 12:41:05;;;;;;;0.80;0.80;;;14.70;67.00;;;;;;5017620;28;20962;-69
2022/04/26 12:43:33;;;;;;;0.90;0.90;;;14.30;67.60;;;;;;5017349;28;20479;-69
2022/04/26 12:46:02;;;;;;;1.10;1.10;;;14.00;69.20;;;;;;5016393;28;20472;-69
2022/04/26 12:51:21;;;;;;;1.20;1.10;;;13.20;72.40;;;;;;5016170;28;20424;-69
2022/04/26 12:53:51;;;;;;;1.00;1.00;;;13.00;73.80;;;;;;5016385;28;20490;-69
2022/04/26 12:56:19;;;;;;;0.93;0.93;;;13.00;73.90;;;;;;5016202;28;20471;-69
2022/04/26 12:58:48;;;;;;;0.80;0.80;;;12.90;74.90;;;;;;5015918;28;21005;-69
2022/04/26 13:01:16;;;;;;;0.90;0.90;;;12.70;75.50;;;;;;5016144;28;20444;-71
2022/04/26 13:03:43;;;;;;;0.90;0.90;;;12.70;75.50;;;;;;5016181;28;20459;-71
2022/04/26 13:06:12;;;;;;;0.80;0.80;;;12.50;76.40;;;;;;5016802;28;20472;-69
2022/04/26 13:08:40;;;;;;;0.70;0.70;;;12.40;76.00;;;;;;5015753;28;20853;-70
2022/04/26 13:11:09;;;;;;;0.83;0.83;;;12.50;74.90;;;;;;5016001;28;20448;-69
2022/04/26 13:13:39;;;;;;;1.93;0.80;;;12.60;75.00;;;;;;5015931;28;20456;-69
2022/04/26 13:16:06;;;;;;;0.80;0.80;;;12.80;75.60;;;;;;5016108;28;20464;-70
2022/04/26 13:18:33;;;;;;;0.80;0.80;;;13.10;75.20;;;;;;5015682;28;20488;-70
2022/04/26 13:21:01;;;;;;;0.90;0.90;;;13.40;75.20;;;;;;5015504;28;21075;-70
2022/04/26 13:23:29;;;;;;;1.10;0.80;;;13.60;75.80;;;;;;5016388;28;20452;-70
2022/04/26 13:25:57;;;;;;;0.70;0.70;;;14.00;75.90;;;;;;5015735;28;20463;-71
2022/04/26 13:28:25;;;;;;;1.20;1.10;;;14.40;74.40;;;;;;5015417;28;20960;-69
2022/04/26 13:30:52;;;;;;;1.57;1.03;;;14.80;74.00;;;;;;5015677;28;20479;-69
2022/04/26 13:33:19;;;;;;;0.90;0.90;;;15.20;73.90;;;;;;5015588;28;20444;-70
2022/04/26 13:35:46;;;;;;;0.80;0.77;;;15.70;70.70;;;;;;5015494;28;20448;-70
2022/04/26 13:38:14;;;;;;;0.80;0.80;;;16.00;72.00;;;;;;5015387;28;20476;-70
2022/04/26 13:40:42;;;;;;;0.80;0.80;;;16.40;73.10;;;;;;5014768;28;20997;-70
2022/04/26 13:43:09;;;;;;;0.70;0.70;;;16.70;68.50;;;;;;5015081;28;21007;-70
2022/04/26 13:45:38;;;;;;;0.70;0.60;;;16.60;63.40;;;;;;5015190;28;20499;-70
2022/04/26 13:48:11;;;;;;;0.67;0.67;;;16.40;61.00;;;;;;5015297;28;20451;-70
2022/04/26 13:50:38;;;;;;;0.70;0.60;;;16.40;64.30;;;;;;5014867;28;20443;-70
2022/04/26 13:53:05;;;;;;;0.70;0.63;;;16.60;62.90;;;;;;5015120;28;20820;-70
2022/04/26 13:55:32;;;;;;;0.70;0.60;;;16.70;62.60;;;;;;5015121;28;20452;-70
2022/04/26 13:57:59;;;;;;;0.60;0.60;;;16.90;63.50;;;;;;5014986;28;20483;-69
2022/04/26 14:00:26;;;;;;;0.70;0.60;;;17.00;60.60;;;;;;5014952;28;20472;-70
2022/04/26 14:02:54;;;;;;;0.70;0.70;;;17.00;60.60;;;;;;5014575;28;20448;-69
2022/04/26 14:05:23;;;;;;;0.70;0.67;;;16.80;58.30;;;;;;5014845;28;20448;-69
2022/04/26 14:07:50;;;;;;;0.60;0.50;;;16.90;61.20;;;;;;5014876;28;20464;-70
2022/04/26 14:10:17;;;;;;;0.60;0.60;;;16.80;58.00;;;;;;5015061;28;20480;-69
2022/04/26 14:12:44;;;;;;;0.70;0.70;;;16.50;57.40;;;;;;5015018;28;20498;-70
2022/04/26 14:23:27;;;;;;;0.80;0.60;;;15.80;60.40;;;;;;5015008;28;20813;-70
2022/04/26 14:25:54;;;;;;;0.60;0.60;;;16.00;59.80;;;;;;5014872;28;20452;-71
2022/04/26 14:28:21;;;;;;;0.80;0.80;;;16.50;59.50;;;;;;5014532;28;20460;-69
2022/04/26 14:30:47;;;;;;;0.67;0.60;;;17.00;59.20;;;;;;5014494;28;20449;-70
2022/04/26 14:33:15;;;;;;;0.70;0.70;;;17.40;56.10;;;;;;5014422;28;20452;-70
2022/04/26 14:35:42;;;;;;;0.70;0.70;;;17.50;57.10;;;;;;5014366;28;20455;-70
2022/04/26 14:38:10;;;;;;;0.60;0.60;;;17.70;55.30;;;;;;5014356;28;20476;-69
2022/04/26 14:40:37;;;;;;;0.67;0.60;;;17.70;56.20;;;;;;5014369;28;20448;-70
2022/04/26 14:43:04;;;;;;;0.70;0.60;;;17.30;54.20;;;;;;5014305;28;20454;-69
2022/04/26 14:45:32;;;;;;;0.70;0.60;;;16.70;56.30;;;;;;5014281;28;20444;-69
2022/04/26 14:48:00;;;;;;;0.60;0.60;;;16.80;57.10;;;;;;5014369;28;20444;-69
2022/04/26 14:50:30;;;;;;;0.60;0.60;;;16.90;58.30;;;;;;5013747;28;20467;-70
2022/04/26 14:52:56;;;;;;;0.60;0.60;;;16.90;57.20;;;;;;5013480;28;20476;-69
2022/04/26 14:55:23;;;;;;;0.70;0.60;;;17.10;55.20;;;;;;5014060;28;20448;-69
2022/04/26 14:57:50;;;;;;;0.70;0.60;;;17.00;54.60;;;;;;5014133;28;20470;-68
2022/04/26 15:00:17;;;;;;;0.70;0.60;;;16.90;55.90;;;;;;5013990;28;20452;-69
2022/04/26 15:02:44;;;;;;;0.60;0.60;;;17.40;55.00;;;;;;5013687;28;20866;-69
2022/04/26 15:05:13;;;;;;;0.60;0.60;;;17.90;52.10;;;;;;5013999;28;20876;-68
2022/04/26 15:10:27;;;;;;;0.80;0.60;;;18.00;54.70;;;;;;5014064;28;20761;-69
2022/04/26 15:18:22;;;;;;;0.60;0.60;;;20.40;48.80;;;;;;5119310;23;20921;-74
2022/04/26 15:20:50;;;;;;;0.70;0.60;;;20.40;46.90;;;;;;5013279;28;20440;-74
2022/04/26 15:23:18;;;;;;;0.70;0.70;;;19.90;47.10;;;;;;5013504;28;20448;-74
2022/04/26 15:25:50;;;;;;;0.60;0.60;;;19.20;49.30;;;;;;5013408;28;20440;-74
2022/04/26 15:28:17;;;;;;;0.70;0.60;;;18.70;49.10;;;;;;5013120;28;20464;-74
2022/04/26 15:30:45;;;;;;;0.60;0.50;;;18.30;49.90;;;;;;5013264;28;20443;-74
2022/04/26 15:33:11;;;;;;;0.93;0.70;;;17.80;52.00;;;;;;5013184;28;20589;-74
2022/04/26 15:35:38;;;;;;;0.67;0.60;;;17.60;52.90;;;;;;5013121;28;20482;-73
2022/04/26 15:38:05;;;;;;;0.70;0.70;;;17.40;53.00;;;;;;5013067;28;20514;-73
2022/04/26 15:40:34;;;;;;;0.80;0.80;;;17.00;52.50;;;;;;5013154;28;20510;-74
2022/04/26 15:43:01;;;;;;;0.70;0.70;;;16.90;54.40;;;;;;5013203;28;20547;-74
2022/04/26 15:45:27;;;;;;;1.07;0.70;;;16.80;55.40;;;;;;5012748;28;21014;-73
2022/04/26 15:47:54;;;;;;;0.70;0.70;;;16.60;56.40;;;;;;5012805;28;20464;-73
2022/04/26 15:50:20;;;;;;;0.90;0.70;;;16.20;57.40;;;;;;5012922;28;20444;-74
2022/04/26 15:52:47;;;;;;;0.70;0.60;;;15.90;59.80;;;;;;5012820;28;20444;-74
2022/04/26 15:55:14;;;;;;;0.80;0.80;;;15.80;63.00;;;;;;5012787;28;20457;-74
2022/04/26 15:57:44;;;;;;;0.70;0.70;;;15.40;64.30;;;;;;5012708;28;20804;-74
2022/04/26 16:00:12;;;;;;;0.70;0.70;;;15.30;66.20;;;;;;5013037;28;20926;-74
2022/04/26 16:02:40;;;;;;;0.70;0.60;;;15.00;66.80;;;;;;5013050;28;20855;-74
2022/04/26 16:05:07;;;;;;;0.70;0.60;;;14.70;67.50;;;;;;5016597;28;20484;-74
2022/04/26 16:07:34;;;;;;;1.50;0.77;;;14.70;69.40;;;;;;5016659;28;20504;-73
2022/04/26 16:20:58;;;;;;;0.90;0.90;;;14.50;72.00;;;;;;5016744;28;20524;-73
2022/04/26 16:23:25;;;;;;;0.87;0.70;;;14.60;72.00;;;;;;5016532;28;20930;-76
2022/04/26 16:25:52;;;;;;;0.70;0.70;;;14.70;71.90;;;;;;5016456;28;20451;-76
2022/04/26 16:28:20;;;;;;;0.70;0.70;;;14.80;71.50;;;;;;5016310;28;20551;-75
2022/04/26 16:30:47;;;;;;;0.70;0.70;;;15.00;71.80;;;;;;5016071;28;20518;-75
2022/04/26 16:33:15;;;;;;;0.90;0.90;;;15.00;70.80;;;;;;5016430;28;20522;-75
2022/04/26 16:35:41;;;;;;;0.80;0.80;;;15.10;71.20;;;;;;5017092;28;20452;-75
2022/04/26 16:38:08;;;;;;;0.83;0.83;;;15.30;70.90;;;;;;5016874;28;20875;-76
2022/04/26 16:40:35;;;;;;;0.90;0.90;;;15.40;70.00;;;;;;5016411;28;20938;-75
2022/04/26 16:43:02;;;;;;;0.70;0.70;;;15.10;67.80;;;;;;5016101;28;20526;-75
2022/04/26 16:45:30;;;;;;;0.90;0.70;;;14.80;68.40;;;;;;5016041;28;20539;-75
2022/04/26 16:47:57;;;;;;;0.70;0.60;;;14.80;69.10;;;;;;5016141;28;20514;-75
2022/04/26 16:50:24;;;;;;;1.47;0.70;;;14.70;67.90;;;;;;5016016;28;20506;-75
2022/04/26 16:52:51;;;;;;;0.70;0.70;;;14.70;67.70;;;;;;5015524;28;20440;-75
2022/04/26 16:55:18;;;;;;;0.60;0.50;;;14.60;67.70;;;;;;5016497;28;20939;-75
2022/04/26 16:57:45;;;;;;;0.80;0.70;;;14.70;67.30;;;;;;5015984;28;20464;-76
2022/04/26 17:00:14;;;;;;;0.70;0.60;;;14.60;69.00;;;;;;5015610;28;20578;-76
2022/04/26 17:02:42;;;;;;;0.70;0.70;;;14.60;67.30;;;;;;5015896;28;20488;-75
2022/04/26 17:05:11;;;;;;;0.60;0.60;;;14.60;67.30;;;;;;5015543;28;20556;-76
2022/04/26 17:07:38;;;;;;;0.67;0.60;;;14.60;68.00;;;;;;5015654;28;20522;-75
2022/04/26 17:10:06;;;;;;;0.80;0.67;;;14.60;69.10;;;;;;5015546;28;20528;-76
2022/04/26 17:12:33;;;;;;;0.70;0.63;;;14.50;67.80;;;;;;5015290;28;20456;-76
2022/04/26 17:15:00;;;;;;;0.70;0.70;;;14.60;67.70;;;;;;5015203;28;20795;-76
2022/04/26 17:17:27;;;;;;;0.80;0.80;;;14.70;68.00;;;;;;5015108;28;20508;-76
2022/04/26 17:19:55;;;;;;;0.70;0.70;;;14.70;67.70;;;;;;5014992;28;21210;-76
2022/04/26 17:22:22;;;;;;;0.70;0.70;;;14.80;68.70;;;;;;5015235;28;20500;-76